sensor_id;sensor_type;location;lat;lon;timestamp;temperature;humidity
5850;DHT22;2951;47.712;9.400;2022-09-24T00:03:41;13.70;99.90
5850;DHT22;2951;47.712;9.400;2022-09-24T00:06:07;13.70;99.90
5850;DHT22;2951;47.712;9.400;2022-09-24T00:08:34;13.70;99.90
5850;DHT22;2951;47.712;9.400;2022-09-24T00:11:02;13.80;99.90
5850;DHT22;2951;47.712;9.400;2022-09-24T00:13:29;13.80;99.90
5850;DHT22;2951;47.712;9.400;2022-09-24T00:16:00;13.80;99.90
5850;DHT22;2951;47.712;9.400;2022-09-24T00:18:27;13.80;99.90
5850;DHT22;2951;47.712;9.400;2022-09-24T00:20:54;13.80;99.90
5850;DHT22;2951;47.712;9.400;2022-09-24T00:23:21;13.80;99.90
5850;DHT22;2951;47.712;9.400;2022-09-24T00:25:47;13.80;99.90
5850;DHT22;2951;47.712;9.400;2022-09-24T00:28:33;13.80;99.90
5850;DHT22;2951;47.712;9.400;2022-09-24T00:31:03;13.80;99.90
5850;DHT22;2951;47.712;9.400;2022-09-24T00:33:29;13.80;99.90
5850;DHT22;2951;47.712;9.400;2022-09-24T00:35:59;13.80;99.90
5850;DHT22;2951;47.712;9.400;2022-09-24T00:38:28;13.90;99.90
5850;DHT22;2951;47.712;9.400;2022-09-24T00:40:55;13.90;99.90
5850;DHT22;2951;47.712;9.400;2022-09-24T00:43:32;13.90;99.90
5850;DHT22;2951;47.712;9.400;2022-09-24T00:48:29;13.90;99.90
5850;DHT22;2951;47.712;9.400;2022-09-24T00:51:00;13.90;99.90
5850;DHT22;2951;47.712;9.400;2022-09-24T00:53:27;13.90;99.90
5850;DHT22;2951;47.712;9.400;2022-09-24T00:55:58;13.90;99.90
5850;DHT22;2951;47.712;9.400;2022-09-24T00:58:27;13.80;99.90
5850;DHT22;2951;47.712;9.400;2022-09-24T01:01:00;13.60;99.90
5850;DHT22;2951;47.712;9.400;2022-09-24T01:03:29;13.70;99.90
5850;DHT22;2951;47.712;9.400;2022-09-24T01:05:57;13.70;99.90
5850;DHT22;2951;47.712;9.400;2022-09-24T01:08:24;13.70;99.90
5850;DHT22;2951;47.712;9.400;2022-09-24T01:16:14;13.60;99.90
5850;DHT22;2951;47.712;9.400;2022-09-24T01:18:44;13.60;99.90
5850;DHT22;2951;47.712;9.400;2022-09-24T01:31:53;13.60;99.90
5850;DHT22;2951;47.712;9.400;2022-09-24T01:34:24;13.60;99.90
5850;DHT22;2951;47.712;9.400;2022-09-24T01:36:52;13.70;99.90
5850;DHT22;2951;47.712;9.400;2022-09-24T01:39:20;13.70;99.90
5850;DHT22;2951;47.712;9.400;2022-09-24T01:41:47;13.70;99.90
5850;DHT22;2951;47.712;9.400;2022-09-24T01:44:14;13.70;99.90
5850;DHT22;2951;47.712;9.400;2022-09-24T01:46:43;13.70;99.90
5850;DHT22;2951;47.712;9.400;2022-09-24T01:49:10;13.70;99.90
5850;DHT22;2951;47.712;9.400;2022-09-24T01:51:46;13.60;99.90
5850;DHT22;2951;47.712;9.400;2022-09-24T01:54:17;13.60;99.90
5850;DHT22;2951;47.712;9.400;2022-09-24T01:57:02;13.60;99.90
5850;DHT22;2951;47.712;9.400;2022-09-24T01:59:31;13.60;99.90
5850;DHT22;2951;47.712;9.400;2022-09-24T02:02:09;13.60;99.90
5850;DHT22;2951;47.712;9.400;2022-09-24T02:04:38;13.60;99.90
5850;DHT22;2951;47.712;9.400;2022-09-24T02:07:12;13.60;99.90
5850;DHT22;2951;47.712;9.400;2022-09-24T02:09:40;13.60;99.90
5850;DHT22;2951;47.712;9.400;2022-09-24T02:12:09;13.70;99.90
5850;DHT22;2951;47.712;9.400;2022-09-24T02:14:39;13.60;99.90
5850;DHT22;2951;47.712;9.400;2022-09-24T02:17:08;13.70;99.90
5850;DHT22;2951;47.712;9.400;2022-09-24T02:19:35;13.70;99.90
5850;DHT22;2951;47.712;9.400;2022-09-24T02:22:03;13.70;99.90
5850;DHT22;2951;47.712;9.400;2022-09-24T02:24:32;13.70;99.90
5850;DHT22;2951;47.712;9.400;2022-09-24T02:26:59;13.60;99.90
5850;DHT22;2951;47.712;9.400;2022-09-24T02:29:26;13.50;99.90
5850;DHT22;2951;47.712;9.400;2022-09-24T02:31:53;13.40;99.90
5850;DHT22;2951;47.712;9.400;2022-09-24T02:34:24;13.30;99.90
5850;DHT22;2951;47.712;9.400;2022-09-24T02:36:53;13.20;99.90
5850;DHT22;2951;47.712;9.400;2022-09-24T02:39:20;13.10;99.90
5850;DHT22;2951;47.712;9.400;2022-09-24T02:41:48;13.00;99.90
5850;DHT22;2951;47.712;9.400;2022-09-24T02:44:15;13.00;99.90
5850;DHT22;2951;47.712;9.400;2022-09-24T02:46:47;13.00;99.90
5850;DHT22;2951;47.712;9.400;2022-09-24T02:49:13;13.00;99.90
5850;DHT22;2951;47.712;9.400;2022-09-24T02:51:40;13.10;99.90
5850;DHT22;2951;47.712;9.400;2022-09-24T02:54:08;13.10;99.90
5850;DHT22;2951;47.712;9.400;2022-09-24T02:56:35;13.20;99.90
5850;DHT22;2951;47.712;9.400;2022-09-24T02:59:02;13.30;99.90
5850;DHT22;2951;47.712;9.400;2022-09-24T03:01:30;13.40;99.90
5850;DHT22;2951;47.712;9.400;2022-09-24T03:03:57;13.40;99.90
5850;DHT22;2951;47.712;9.400;2022-09-24T03:06:24;13.40;99.90
5850;DHT22;2951;47.712;9.400;2022-09-24T03:08:51;13.40;99.90
5850;DHT22;2951;47.712;9.400;2022-09-24T03:11:19;13.40;99.90
5850;DHT22;2951;47.712;9.400;2022-09-24T03:13:49;13.30;99.90
5850;DHT22;2951;47.712;9.400;2022-09-24T03:16:17;13.40;99.90
5850;DHT22;2951;47.712;9.400;2022-09-24T03:18:44;13.40;99.90
5850;DHT22;2951;47.712;9.400;2022-09-24T03:21:12;13.30;99.90
5850;DHT22;2951;47.712;9.400;2022-09-24T03:23:39;13.30;99.90
5850;DHT22;2951;47.712;9.400;2022-09-24T03:26:06;13.30;99.90
5850;DHT22;2951;47.712;9.400;2022-09-24T03:28:33;13.10;99.90
5850;DHT22;2951;47.712;9.400;2022-09-24T03:31:00;13.10;99.90
5850;DHT22;2951;47.712;9.400;2022-09-24T03:33:28;13.20;99.90
5850;DHT22;2951;47.712;9.400;2022-09-24T03:35:59;13.10;99.90
5850;DHT22;2951;47.712;9.400;2022-09-24T03:38:26;13.10;99.90
5850;DHT22;2951;47.712;9.400;2022-09-24T03:40:53;13.00;99.90
5850;DHT22;2951;47.712;9.400;2022-09-24T03:43:20;13.10;99.90
5850;DHT22;2951;47.712;9.400;2022-09-24T03:45:46;13.10;99.90
5850;DHT22;2951;47.712;9.400;2022-09-24T03:48:15;13.10;99.90
5850;DHT22;2951;47.712;9.400;2022-09-24T03:50:42;13.10;99.90
5850;DHT22;2951;47.712;9.400;2022-09-24T03:53:09;13.10;99.90
5850;DHT22;2951;47.712;9.400;2022-09-24T03:55:40;13.20;99.90
5850;DHT22;2951;47.712;9.400;2022-09-24T03:58:07;13.20;99.90
5850;DHT22;2951;47.712;9.400;2022-09-24T04:00:33;13.20;99.90
5850;DHT22;2951;47.712;9.400;2022-09-24T04:03:05;13.20;99.90
5850;DHT22;2951;47.712;9.400;2022-09-24T04:05:32;13.20;99.90
5850;DHT22;2951;47.712;9.400;2022-09-24T04:07:59;13.20;99.90
5850;DHT22;2951;47.712;9.400;2022-09-24T04:10:26;13.20;99.90
5850;DHT22;2951;47.712;9.400;2022-09-24T04:12:53;13.20;99.90
5850;DHT22;2951;47.712;9.400;2022-09-24T04:15:20;13.00;99.90
5850;DHT22;2951;47.712;9.400;2022-09-24T04:17:51;12.90;99.90
5850;DHT22;2951;47.712;9.400;2022-09-24T04:20:22;12.90;99.90
5850;DHT22;2951;47.712;9.400;2022-09-24T04:22:53;12.90;99.90
5850;DHT22;2951;47.712;9.400;2022-09-24T04:25:21;12.90;99.90
5850;DHT22;2951;47.712;9.400;2022-09-24T04:27:55;13.00;99.90
5850;DHT22;2951;47.712;9.400;2022-09-24T04:30:23;13.10;99.90
5850;DHT22;2951;47.712;9.400;2022-09-24T04:32:50;13.10;99.90
5850;DHT22;2951;47.712;9.400;2022-09-24T04:35:17;13.10;99.90
5850;DHT22;2951;47.712;9.400;2022-09-24T04:37:44;13.10;99.90
5850;DHT22;2951;47.712;9.400;2022-09-24T04:40:12;13.10;99.90
5850;DHT22;2951;47.712;9.400;2022-09-24T04:42:39;13.10;99.90
5850;DHT22;2951;47.712;9.400;2022-09-24T04:45:06;13.10;99.90
5850;DHT22;2951;47.712;9.400;2022-09-24T04:47:33;13.10;99.90
5850;DHT22;2951;47.712;9.400;2022-09-24T04:50:00;13.10;99.90
5850;DHT22;2951;47.712;9.400;2022-09-24T04:52:28;13.20;99.90
5850;DHT22;2951;47.712;9.400;2022-09-24T04:54:58;13.10;99.90
5850;DHT22;2951;47.712;9.400;2022-09-24T04:57:26;13.10;99.90
5850;DHT22;2951;47.712;9.400;2022-09-24T04:59:53;13.10;99.90
5850;DHT22;2951;47.712;9.400;2022-09-24T05:02:20;13.20;99.90
5850;DHT22;2951;47.712;9.400;2022-09-24T05:04:47;13.20;99.90
5850;DHT22;2951;47.712;9.400;2022-09-24T05:07:13;13.30;99.90
5850;DHT22;2951;47.712;9.400;2022-09-24T05:09:40;13.30;99.90
5850;DHT22;2951;47.712;9.400;2022-09-24T05:12:07;13.30;99.90
5850;DHT22;2951;47.712;9.400;2022-09-24T05:14:34;13.40;99.90
5850;DHT22;2951;47.712;9.400;2022-09-24T05:17:00;13.30;99.90
5850;DHT22;2951;47.712;9.400;2022-09-24T05:19:27;13.20;99.90
5850;DHT22;2951;47.712;9.400;2022-09-24T05:21:54;13.30;99.90
5850;DHT22;2951;47.712;9.400;2022-09-24T05:24:20;13.30;99.90
5850;DHT22;2951;47.712;9.400;2022-09-24T05:26:47;13.40;99.90
5850;DHT22;2951;47.712;9.400;2022-09-24T05:29:32;13.40;99.90
5850;DHT22;2951;47.712;9.400;2022-09-24T05:32:01;13.40;99.90
5850;DHT22;2951;47.712;9.400;2022-09-24T05:34:29;13.50;99.90
5850;DHT22;2951;47.712;9.400;2022-09-24T05:36:57;13.50;99.90
5850;DHT22;2951;47.712;9.400;2022-09-24T05:39:24;13.50;99.90
5850;DHT22;2951;47.712;9.400;2022-09-24T05:41:53;13.50;99.90
5850;DHT22;2951;47.712;9.400;2022-09-24T05:44:20;13.50;99.90
5850;DHT22;2951;47.712;9.400;2022-09-24T05:46:48;13.50;99.90
5850;DHT22;2951;47.712;9.400;2022-09-24T05:49:14;13.40;99.90
5850;DHT22;2951;47.712;9.400;2022-09-24T05:51:41;13.40;99.90
5850;DHT22;2951;47.712;9.400;2022-09-24T05:54:08;13.40;99.90
5850;DHT22;2951;47.712;9.400;2022-09-24T05:56:37;13.40;99.90
5850;DHT22;2951;47.712;9.400;2022-09-24T05:59:04;13.40;99.90
5850;DHT22;2951;47.712;9.400;2022-09-24T06:01:31;13.30;99.90
5850;DHT22;2951;47.712;9.400;2022-09-24T06:03:58;13.30;99.90
5850;DHT22;2951;47.712;9.400;2022-09-24T06:06:27;13.30;99.90
5850;DHT22;2951;47.712;9.400;2022-09-24T06:08:54;13.20;99.90
5850;DHT22;2951;47.712;9.400;2022-09-24T06:11:21;13.20;99.90
5850;DHT22;2951;47.712;9.400;2022-09-24T06:13:48;13.20;99.90
5850;DHT22;2951;47.712;9.400;2022-09-24T06:16:15;13.30;99.90
5850;DHT22;2951;47.712;9.400;2022-09-24T06:18:43;13.30;99.90
5850;DHT22;2951;47.712;9.400;2022-09-24T06:21:10;13.30;99.90
5850;DHT22;2951;47.712;9.400;2022-09-24T06:23:38;13.30;99.90
5850;DHT22;2951;47.712;9.400;2022-09-24T06:26:05;13.30;99.90
5850;DHT22;2951;47.712;9.400;2022-09-24T06:28:33;13.40;99.90
5850;DHT22;2951;47.712;9.400;2022-09-24T06:31:00;13.40;99.90
5850;DHT22;2951;47.712;9.400;2022-09-24T06:33:26;13.50;99.90
5850;DHT22;2951;47.712;9.400;2022-09-24T06:35:54;13.50;99.90
5850;DHT22;2951;47.712;9.400;2022-09-24T06:38:20;13.50;99.90
5850;DHT22;2951;47.712;9.400;2022-09-24T06:40:47;13.50;99.90
5850;DHT22;2951;47.712;9.400;2022-09-24T06:43:14;13.60;99.90
5850;DHT22;2951;47.712;9.400;2022-09-24T06:45:41;13.60;99.90
5850;DHT22;2951;47.712;9.400;2022-09-24T06:48:11;13.70;99.90
5850;DHT22;2951;47.712;9.400;2022-09-24T06:50:39;13.80;99.90
5850;DHT22;2951;47.712;9.400;2022-09-24T06:53:07;13.80;99.90
5850;DHT22;2951;47.712;9.400;2022-09-24T06:55:34;13.80;99.90
5850;DHT22;2951;47.712;9.400;2022-09-24T06:58:02;13.80;99.90
5850;DHT22;2951;47.712;9.400;2022-09-24T07:00:29;13.80;99.90
5850;DHT22;2951;47.712;9.400;2022-09-24T07:02:56;13.90;99.90
5850;DHT22;2951;47.712;9.400;2022-09-24T07:05:23;13.90;99.90
5850;DHT22;2951;47.712;9.400;2022-09-24T07:07:50;14.00;99.90
5850;DHT22;2951;47.712;9.400;2022-09-24T07:10:17;14.00;99.90
5850;DHT22;2951;47.712;9.400;2022-09-24T07:12:43;14.10;99.90
5850;DHT22;2951;47.712;9.400;2022-09-24T07:15:10;14.20;99.90
5850;DHT22;2951;47.712;9.400;2022-09-24T07:17:37;14.30;99.90
5850;DHT22;2951;47.712;9.400;2022-09-24T07:20:04;14.30;99.90
5850;DHT22;2951;47.712;9.400;2022-09-24T07:22:31;14.30;99.90
5850;DHT22;2951;47.712;9.400;2022-09-24T07:24:57;14.40;99.90
5850;DHT22;2951;47.712;9.400;2022-09-24T07:27:24;14.40;99.90
5850;DHT22;2951;47.712;9.400;2022-09-24T07:29:51;14.50;99.90
5850;DHT22;2951;47.712;9.400;2022-09-24T07:32:17;14.50;99.90
5850;DHT22;2951;47.712;9.400;2022-09-24T07:34:44;14.50;99.90
5850;DHT22;2951;47.712;9.400;2022-09-24T07:37:11;14.60;99.90
5850;DHT22;2951;47.712;9.400;2022-09-24T07:39:38;14.60;99.90
5850;DHT22;2951;47.712;9.400;2022-09-24T07:42:04;14.70;99.90
5850;DHT22;2951;47.712;9.400;2022-09-24T07:44:31;14.70;99.90
5850;DHT22;2951;47.712;9.400;2022-09-24T07:46:58;14.70;99.90
5850;DHT22;2951;47.712;9.400;2022-09-24T07:49:25;14.60;99.90
5850;DHT22;2951;47.712;9.400;2022-09-24T07:51:52;14.60;99.90
5850;DHT22;2951;47.712;9.400;2022-09-24T07:54:19;14.70;99.90
5850;DHT22;2951;47.712;9.400;2022-09-24T07:56:46;14.80;99.90
5850;DHT22;2951;47.712;9.400;2022-09-24T07:59:12;14.80;99.90
5850;DHT22;2951;47.712;9.400;2022-09-24T08:01:39;14.90;99.90
5850;DHT22;2951;47.712;9.400;2022-09-24T08:04:06;14.90;99.90
5850;DHT22;2951;47.712;9.400;2022-09-24T08:06:33;15.00;99.90
5850;DHT22;2951;47.712;9.400;2022-09-24T08:09:04;15.00;99.90
5850;DHT22;2951;47.712;9.400;2022-09-24T08:11:31;15.10;99.90
5850;DHT22;2951;47.712;9.400;2022-09-24T08:13:58;15.30;99.90
5850;DHT22;2951;47.712;9.400;2022-09-24T08:16:26;15.20;99.90
5850;DHT22;2951;47.712;9.400;2022-09-24T08:18:53;15.20;99.90
5850;DHT22;2951;47.712;9.400;2022-09-24T08:21:20;15.00;99.90
5850;DHT22;2951;47.712;9.400;2022-09-24T08:23:47;15.10;99.90
5850;DHT22;2951;47.712;9.400;2022-09-24T08:26:13;15.00;99.90
5850;DHT22;2951;47.712;9.400;2022-09-24T08:28:40;15.00;99.90
5850;DHT22;2951;47.712;9.400;2022-09-24T08:31:08;14.90;99.90
5850;DHT22;2951;47.712;9.400;2022-09-24T08:33:36;14.90;99.90
5850;DHT22;2951;47.712;9.400;2022-09-24T08:36:05;14.80;99.90
5850;DHT22;2951;47.712;9.400;2022-09-24T08:38:32;14.70;99.90
5850;DHT22;2951;47.712;9.400;2022-09-24T08:41:03;14.60;99.90
5850;DHT22;2951;47.712;9.400;2022-09-24T08:46:00;14.70;99.90
5850;DHT22;2951;47.712;9.400;2022-09-24T08:48:48;14.70;99.90
5850;DHT22;2951;47.712;9.400;2022-09-24T08:51:17;14.60;99.90
5850;DHT22;2951;47.712;9.400;2022-09-24T08:56:16;14.60;99.90
5850;DHT22;2951;47.712;9.400;2022-09-24T09:01:16;14.50;99.90
5850;DHT22;2951;47.712;9.400;2022-09-24T09:03:48;14.50;99.90
5850;DHT22;2951;47.712;9.400;2022-09-24T09:09:19;14.60;99.90
5850;DHT22;2951;47.712;9.400;2022-09-24T09:11:57;14.70;99.90
5850;DHT22;2951;47.712;9.400;2022-09-24T09:15:09;14.90;99.90
5850;DHT22;2951;47.712;9.400;2022-09-24T09:19:51;15.00;99.90
5850;DHT22;2951;47.712;9.400;2022-09-24T09:22:20;15.00;99.90
5850;DHT22;2951;47.712;9.400;2022-09-24T09:24:50;15.10;99.90
5850;DHT22;2951;47.712;9.400;2022-09-24T09:27:17;15.20;99.90
5850;DHT22;2951;47.712;9.400;2022-09-24T09:29:45;15.20;99.90
5850;DHT22;2951;47.712;9.400;2022-09-24T09:37:17;15.20;99.90
5850;DHT22;2951;47.712;9.400;2022-09-24T09:42:36;15.50;99.90
5850;DHT22;2951;47.712;9.400;2022-09-24T09:48:11;15.70;99.90
5850;DHT22;2951;47.712;9.400;2022-09-24T09:50:43;15.60;99.90
5850;DHT22;2951;47.712;9.400;2022-09-24T09:53:20;15.60;99.90
5850;DHT22;2951;47.712;9.400;2022-09-24T09:55:51;15.60;99.90
5850;DHT22;2951;47.712;9.400;2022-09-24T09:58:20;15.70;99.90
5850;DHT22;2951;47.712;9.400;2022-09-24T10:00:47;15.80;99.90
5850;DHT22;2951;47.712;9.400;2022-09-24T10:03:22;15.70;99.90
5850;DHT22;2951;47.712;9.400;2022-09-24T10:05:57;15.80;99.90
5850;DHT22;2951;47.712;9.400;2022-09-24T10:08:24;15.50;99.90
5850;DHT22;2951;47.712;9.400;2022-09-24T10:10:52;15.60;99.90
5850;DHT22;2951;47.712;9.400;2022-09-24T10:13:20;15.60;99.90
5850;DHT22;2951;47.712;9.400;2022-09-24T10:16:00;15.50;99.90
5850;DHT22;2951;47.712;9.400;2022-09-24T10:18:30;15.50;99.90
5850;DHT22;2951;47.712;9.400;2022-09-24T10:21:03;15.40;99.90
5850;DHT22;2951;47.712;9.400;2022-09-24T10:23:34;15.40;99.90
5850;DHT22;2951;47.712;9.400;2022-09-24T10:26:02;15.40;99.90
5850;DHT22;2951;47.712;9.400;2022-09-24T10:28:29;15.50;99.90
5850;DHT22;2951;47.712;9.400;2022-09-24T10:31:16;15.40;99.90
5850;DHT22;2951;47.712;9.400;2022-09-24T10:33:44;15.50;99.90
5850;DHT22;2951;47.712;9.400;2022-09-24T10:36:16;15.60;99.90
5850;DHT22;2951;47.712;9.400;2022-09-24T10:38:44;15.70;99.90
5850;DHT22;2951;47.712;9.400;2022-09-24T10:41:23;15.60;99.90
5850;DHT22;2951;47.712;9.400;2022-09-24T10:43:52;15.50;99.90
5850;DHT22;2951;47.712;9.400;2022-09-24T10:46:24;15.50;99.90
5850;DHT22;2951;47.712;9.400;2022-09-24T10:49:00;15.70;99.90
5850;DHT22;2951;47.712;9.400;2022-09-24T10:51:34;15.50;99.90
5850;DHT22;2951;47.712;9.400;2022-09-24T10:56:38;15.40;99.90
5850;DHT22;2951;47.712;9.400;2022-09-24T11:04:47;15.50;99.90
5850;DHT22;2951;47.712;9.400;2022-09-24T11:15:14;15.50;99.90
5850;DHT22;2951;47.712;9.400;2022-09-24T11:18:21;15.50;99.90
5850;DHT22;2951;47.712;9.400;2022-09-24T11:20:43;15.70;99.90
5850;DHT22;2951;47.712;9.400;2022-09-24T11:23:25;15.80;99.90
5850;DHT22;2951;47.712;9.400;2022-09-24T11:31:24;16.20;99.90
5850;DHT22;2951;47.712;9.400;2022-09-24T11:34:16;16.00;99.90
5850;DHT22;2951;47.712;9.400;2022-09-24T11:49:17;16.50;99.90
5850;DHT22;2951;47.712;9.400;2022-09-24T11:57:24;16.10;99.90
5850;DHT22;2951;47.712;9.400;2022-09-24T12:07:21;16.20;99.90
5850;DHT22;2951;47.712;9.400;2022-09-24T12:09:56;16.10;99.90
5850;DHT22;2951;47.712;9.400;2022-09-24T12:12:35;16.10;99.90
5850;DHT22;2951;47.712;9.400;2022-09-24T12:17:44;16.20;99.90
5850;DHT22;2951;47.712;9.400;2022-09-24T12:22:49;16.10;99.90
5850;DHT22;2951;47.712;9.400;2022-09-24T12:25:17;16.00;99.90
5850;DHT22;2951;47.712;9.400;2022-09-24T12:27:44;16.00;99.90
5850;DHT22;2951;47.712;9.400;2022-09-24T12:33:07;16.10;99.90
5850;DHT22;2951;47.712;9.400;2022-09-24T12:38:16;16.10;99.90
5850;DHT22;2951;47.712;9.400;2022-09-24T12:43:41;16.00;99.90
5850;DHT22;2951;47.712;9.400;2022-09-24T12:46:04;16.10;99.90
5850;DHT22;2951;47.712;9.400;2022-09-24T12:51:01;16.10;99.90
5850;DHT22;2951;47.712;9.400;2022-09-24T12:53:33;16.20;99.90
5850;DHT22;2951;47.712;9.400;2022-09-24T12:56:01;16.30;99.90
5850;DHT22;2951;47.712;9.400;2022-09-24T12:58:29;16.30;99.90
5850;DHT22;2951;47.712;9.400;2022-09-24T13:01:05;16.40;99.90
5850;DHT22;2951;47.712;9.400;2022-09-24T13:03:36;16.40;99.90
5850;DHT22;2951;47.712;9.400;2022-09-24T13:06:21;16.50;99.90
5850;DHT22;2951;47.712;9.400;2022-09-24T13:08:47;16.50;99.90
5850;DHT22;2951;47.712;9.400;2022-09-24T13:11:31;16.60;99.90
5850;DHT22;2951;47.712;9.400;2022-09-24T13:14:05;16.90;99.90
5850;DHT22;2951;47.712;9.400;2022-09-24T13:16:48;17.00;99.90
5850;DHT22;2951;47.712;9.400;2022-09-24T13:22:02;16.90;99.90
5850;DHT22;2951;47.712;9.400;2022-09-24T13:24:31;16.80;99.90
5850;DHT22;2951;47.712;9.400;2022-09-24T13:29:47;16.60;99.90
5850;DHT22;2951;47.712;9.400;2022-09-24T13:32:25;16.60;99.90
5850;DHT22;2951;47.712;9.400;2022-09-24T13:34:52;16.80;99.90
5850;DHT22;2951;47.712;9.400;2022-09-24T13:37:21;16.80;99.90
5850;DHT22;2951;47.712;9.400;2022-09-24T13:39:54;16.80;99.90
5850;DHT22;2951;47.712;9.400;2022-09-24T13:42:35;16.70;99.90
5850;DHT22;2951;47.712;9.400;2022-09-24T13:45:08;16.50;99.90
5850;DHT22;2951;47.712;9.400;2022-09-24T13:47:40;16.40;99.90
5850;DHT22;2951;47.712;9.400;2022-09-24T13:50:17;16.30;99.90
5850;DHT22;2951;47.712;9.400;2022-09-24T13:52:46;16.20;99.90
5850;DHT22;2951;47.712;9.400;2022-09-24T13:55:16;16.10;99.90
5850;DHT22;2951;47.712;9.400;2022-09-24T13:57:44;16.00;99.90
5850;DHT22;2951;47.712;9.400;2022-09-24T14:02:42;16.00;99.90
5850;DHT22;2951;47.712;9.400;2022-09-24T14:05:14;16.00;99.90
5850;DHT22;2951;47.712;9.400;2022-09-24T14:07:41;16.00;99.90
5850;DHT22;2951;47.712;9.400;2022-09-24T14:10:12;16.00;99.90
5850;DHT22;2951;47.712;9.400;2022-09-24T14:12:39;16.10;99.90
5850;DHT22;2951;47.712;9.400;2022-09-24T14:15:16;16.20;99.90
5850;DHT22;2951;47.712;9.400;2022-09-24T14:17:53;16.10;99.90
5850;DHT22;2951;47.712;9.400;2022-09-24T14:20:20;16.10;99.90
5850;DHT22;2951;47.712;9.400;2022-09-24T14:22:47;16.10;99.90
5850;DHT22;2951;47.712;9.400;2022-09-24T14:25:25;16.10;99.90
5850;DHT22;2951;47.712;9.400;2022-09-24T14:27:53;16.00;99.90
5850;DHT22;2951;47.712;9.400;2022-09-24T14:30:21;15.90;99.90
5850;DHT22;2951;47.712;9.400;2022-09-24T14:32:58;15.90;99.90
5850;DHT22;2951;47.712;9.400;2022-09-24T14:35:28;15.90;99.90
5850;DHT22;2951;47.712;9.400;2022-09-24T14:38:03;15.90;99.90
5850;DHT22;2951;47.712;9.400;2022-09-24T14:40:42;15.90;99.90
5850;DHT22;2951;47.712;9.400;2022-09-24T14:45:45;15.90;99.90
5850;DHT22;2951;47.712;9.400;2022-09-24T14:48:30;15.90;99.90
5850;DHT22;2951;47.712;9.400;2022-09-24T14:50:57;16.00;99.90
5850;DHT22;2951;47.712;9.400;2022-09-24T14:53:31;15.90;99.90
5850;DHT22;2951;47.712;9.400;2022-09-24T14:56:00;16.00;99.90
5850;DHT22;2951;47.712;9.400;2022-09-24T15:00:57;16.20;99.90
5850;DHT22;2951;47.712;9.400;2022-09-24T15:03:27;16.40;99.90
5850;DHT22;2951;47.712;9.400;2022-09-24T15:06:02;16.40;99.90
5850;DHT22;2951;47.712;9.400;2022-09-24T15:08:29;16.50;99.90
5850;DHT22;2951;47.712;9.400;2022-09-24T15:13:23;16.30;99.90
5850;DHT22;2951;47.712;9.400;2022-09-24T15:21:32;16.00;99.90
5850;DHT22;2951;47.712;9.400;2022-09-24T15:23:59;16.10;99.90
5850;DHT22;2951;47.712;9.400;2022-09-24T15:26:29;16.10;99.90
5850;DHT22;2951;47.712;9.400;2022-09-24T15:28:57;16.10;99.90
5850;DHT22;2951;47.712;9.400;2022-09-24T15:31:23;16.10;99.90
5850;DHT22;2951;47.712;9.400;2022-09-24T15:33:51;16.00;99.90
5850;DHT22;2951;47.712;9.400;2022-09-24T15:36:19;16.00;99.90
5850;DHT22;2951;47.712;9.400;2022-09-24T15:38:49;16.00;99.90
5850;DHT22;2951;47.712;9.400;2022-09-24T15:41:17;16.00;99.90
5850;DHT22;2951;47.712;9.400;2022-09-24T15:43:46;16.00;99.90
5850;DHT22;2951;47.712;9.400;2022-09-24T15:46:13;16.00;99.90
5850;DHT22;2951;47.712;9.400;2022-09-24T15:48:40;16.00;99.90
5850;DHT22;2951;47.712;9.400;2022-09-24T15:51:08;16.10;99.90
5850;DHT22;2951;47.712;9.400;2022-09-24T15:53:39;16.10;99.90
5850;DHT22;2951;47.712;9.400;2022-09-24T15:56:06;16.00;99.90
5850;DHT22;2951;47.712;9.400;2022-09-24T15:58:33;15.90;99.90
5850;DHT22;2951;47.712;9.400;2022-09-24T16:01:00;15.90;99.90
5850;DHT22;2951;47.712;9.400;2022-09-24T16:03:27;15.70;99.90
5850;DHT22;2951;47.712;9.400;2022-09-24T16:05:55;15.60;99.90
5850;DHT22;2951;47.712;9.400;2022-09-24T16:08:22;15.50;99.90
5850;DHT22;2951;47.712;9.400;2022-09-24T16:10:49;15.50;99.90
5850;DHT22;2951;47.712;9.400;2022-09-24T16:13:16;15.50;99.90
5850;DHT22;2951;47.712;9.400;2022-09-24T16:15:43;15.50;99.90
5850;DHT22;2951;47.712;9.400;2022-09-24T16:18:11;15.50;99.90
5850;DHT22;2951;47.712;9.400;2022-09-24T16:20:39;15.60;99.90
5850;DHT22;2951;47.712;9.400;2022-09-24T16:23:08;15.60;99.90
5850;DHT22;2951;47.712;9.400;2022-09-24T16:25:37;15.70;99.90
5850;DHT22;2951;47.712;9.400;2022-09-24T16:28:04;15.80;99.90
5850;DHT22;2951;47.712;9.400;2022-09-24T16:30:31;15.90;99.90
5850;DHT22;2951;47.712;9.400;2022-09-24T16:33:01;15.90;99.90
5850;DHT22;2951;47.712;9.400;2022-09-24T16:35:28;15.70;99.90
5850;DHT22;2951;47.712;9.400;2022-09-24T16:37:55;15.70;99.90
5850;DHT22;2951;47.712;9.400;2022-09-24T16:40:22;15.60;99.90
5850;DHT22;2951;47.712;9.400;2022-09-24T16:42:49;15.60;99.90
5850;DHT22;2951;47.712;9.400;2022-09-24T16:45:16;15.50;99.90
5850;DHT22;2951;47.712;9.400;2022-09-24T16:47:43;15.40;99.90
5850;DHT22;2951;47.712;9.400;2022-09-24T16:50:10;15.30;99.90
5850;DHT22;2951;47.712;9.400;2022-09-24T16:52:38;15.20;99.90
5850;DHT22;2951;47.712;9.400;2022-09-24T16:55:06;15.20;99.90
5850;DHT22;2951;47.712;9.400;2022-09-24T16:57:34;15.10;99.90
5850;DHT22;2951;47.712;9.400;2022-09-24T17:00:02;15.00;99.90
5850;DHT22;2951;47.712;9.400;2022-09-24T17:02:31;14.90;99.90
5850;DHT22;2951;47.712;9.400;2022-09-24T17:04:57;14.70;99.90
5850;DHT22;2951;47.712;9.400;2022-09-24T17:07:30;14.60;99.90
5850;DHT22;2951;47.712;9.400;2022-09-24T17:09:58;14.60;99.90
5850;DHT22;2951;47.712;9.400;2022-09-24T17:12:45;14.60;99.90
5850;DHT22;2951;47.712;9.400;2022-09-24T17:15:12;14.60;99.90
5850;DHT22;2951;47.712;9.400;2022-09-24T17:17:40;14.50;99.90
5850;DHT22;2951;47.712;9.400;2022-09-24T17:20:14;14.40;99.90
5850;DHT22;2951;47.712;9.400;2022-09-24T17:22:41;14.20;99.90
5850;DHT22;2951;47.712;9.400;2022-09-24T17:25:08;14.20;99.90
5850;DHT22;2951;47.712;9.400;2022-09-24T17:27:35;14.10;99.90
5850;DHT22;2951;47.712;9.400;2022-09-24T17:30:02;14.10;99.90
5850;DHT22;2951;47.712;9.400;2022-09-24T17:32:29;14.00;99.90
5850;DHT22;2951;47.712;9.400;2022-09-24T17:34:56;13.90;99.90
5850;DHT22;2951;47.712;9.400;2022-09-24T17:37:23;13.90;99.90
5850;DHT22;2951;47.712;9.400;2022-09-24T17:39:50;13.80;99.90
5850;DHT22;2951;47.712;9.400;2022-09-24T17:42:17;13.70;99.90
5850;DHT22;2951;47.712;9.400;2022-09-24T17:44:44;13.60;99.90
5850;DHT22;2951;47.712;9.400;2022-09-24T17:47:11;13.50;99.90
5850;DHT22;2951;47.712;9.400;2022-09-24T17:49:38;13.50;99.90
5850;DHT22;2951;47.712;9.400;2022-09-24T17:52:05;13.40;99.90
5850;DHT22;2951;47.712;9.400;2022-09-24T17:54:31;13.50;99.90
5850;DHT22;2951;47.712;9.400;2022-09-24T17:56:58;13.40;99.90
5850;DHT22;2951;47.712;9.400;2022-09-24T17:59:26;13.40;99.90
5850;DHT22;2951;47.712;9.400;2022-09-24T18:01:53;13.40;99.90
5850;DHT22;2951;47.712;9.400;2022-09-24T18:04:20;13.40;99.90
5850;DHT22;2951;47.712;9.400;2022-09-24T18:06:47;13.30;99.90
5850;DHT22;2951;47.712;9.400;2022-09-24T18:09:15;13.20;99.90
5850;DHT22;2951;47.712;9.400;2022-09-24T18:14:10;13.10;99.90
5850;DHT22;2951;47.712;9.400;2022-09-24T18:16:39;13.10;99.90
5850;DHT22;2951;47.712;9.400;2022-09-24T18:19:08;13.10;99.90
5850;DHT22;2951;47.712;9.400;2022-09-24T18:21:35;13.10;99.90
5850;DHT22;2951;47.712;9.400;2022-09-24T18:24:01;13.10;99.90
5850;DHT22;2951;47.712;9.400;2022-09-24T18:26:29;13.10;99.90